Time;durP1;ratioP1;P1;durP2;ratioP2;P2;SDS_P1;SDS_P2;PMS_P1;PMS_P2;Temp;Humidity;BMP_temperature;BMP_pressure;BME280_temperature;BME280_humidity;BME280_pressure;Samples;Min_cycle;Max_cycle;Signal;HPM_P1;HPM_P2
2023/12/09 00:00:48;;;;;;;15.43;9.23;;;;;;;;;;10423618;28;20589;-80
2023/12/09 00:05:49;;;;;;;16.33;8.45;;;;;;;;;;10428968;28;20288;-79
2023/12/09 00:10:51;;;;;;;22.85;10.00;;;;;;;;;;10432652;28;20241;-79
2023/12/09 00:15:52;;;;;;;15.00;7.93;;;;;;;;;;10432403;28;20215;-79
2023/12/09 00:20:53;;;;;;;17.25;8.98;;;;;;;;;;10374900;28;20214;-79
2023/12/09 00:25:54;;;;;;;12.93;7.47;;;;;;;;;;10428812;28;20215;-80
2023/12/09 00:30:55;;;;;;;16.98;8.07;;;;;;;;;;10392445;28;20223;-79
2023/12/09 00:35:56;;;;;;;14.15;8.10;;;;;;;;;;10393113;28;20214;-79
2023/12/09 00:40:57;;;;;;;14.10;7.72;;;;;;;;;;10436255;28;20211;-79
2023/12/09 00:45:58;;;;;;;13.38;8.00;;;;;;;;;;10413656;28;20223;-80
2023/12/09 00:50:59;;;;;;;15.32;8.02;;;;;;;;;;10404473;28;20215;-80
2023/12/09 00:56:00;;;;;;;13.45;7.68;;;;;;;;;;10414877;28;21353;-80
2023/12/09 01:01:01;;;;;;;16.02;7.53;;;;;;;;;;10453990;28;20219;-80
2023/12/09 01:06:02;;;;;;;15.27;7.63;;;;;;;;;;10458271;28;20231;-80
2023/12/09 01:11:04;;;;;;;13.20;6.97;;;;;;;;;;10421180;28;20219;-80
2023/12/09 01:16:07;;;;;;;14.98;7.28;;;;;;;;;;10413745;28;20564;-80
2023/12/09 01:21:08;;;;;;;11.10;6.75;;;;;;;;;;10411688;28;20250;-80
2023/12/09 01:26:09;;;;;;;14.23;7.72;;;;;;;;;;10426214;28;20210;-79
2023/12/09 01:31:10;;;;;;;12.05;7.68;;;;;;;;;;10440001;28;20306;-80
2023/12/09 01:36:11;;;;;;;12.73;7.50;;;;;;;;;;10414148;28;20243;-80
2023/12/09 01:41:12;;;;;;;15.60;7.85;;;;;;;;;;10434659;28;20993;-80
2023/12/09 01:46:13;;;;;;;14.18;7.68;;;;;;;;;;10415210;28;20222;-79
2023/12/09 01:51:16;;;;;;;14.25;7.53;;;;;;;;;;10415304;28;20219;-79
2023/12/09 01:56:18;;;;;;;12.02;7.70;;;;;;;;;;10435672;28;20207;-80
2023/12/09 02:01:19;;;;;;;13.95;6.60;;;;;;;;;;10424654;28;20215;-80
2023/12/09 02:06:20;;;;;;;9.90;6.68;;;;;;;;;;10421993;28;20224;-79
2023/12/09 02:11:38;;;;;;;11.57;6.72;;;;;;;;;;10395007;28;20214;-79
2023/12/09 02:16:48;;;;;;;13.73;6.60;;;;;;;;;;10461459;28;20202;-80
2023/12/09 02:21:59;;;;;;;11.43;6.68;;;;;;;;;;10428994;28;20310;-81
2023/12/09 02:27:17;;;;;;;11.20;7.82;;;;;;;;;;10424187;28;20221;-80
2023/12/09 02:32:20;;;;;;;11.85;6.90;;;;;;;;;;10416083;28;20216;-79
2023/12/09 02:37:21;;;;;;;13.25;7.57;;;;;;;;;;10407269;28;20570;-80
2023/12/09 02:42:23;;;;;;;12.43;7.68;;;;;;;;;;10429696;28;20242;-81
2023/12/09 02:47:25;;;;;;;12.52;7.25;;;;;;;;;;10417979;28;20210;-78
2023/12/09 02:52:26;;;;;;;14.13;7.38;;;;;;;;;;10437442;28;20365;-79
2023/12/09 02:57:27;;;;;;;9.85;6.78;;;;;;;;;;10424217;28;20273;-80
2023/12/09 03:02:28;;;;;;;10.45;6.57;;;;;;;;;;10420060;28;20210;-80
2023/12/09 03:07:29;;;;;;;11.82;6.57;;;;;;;;;;10446207;28;20214;-80
2023/12/09 03:12:31;;;;;;;8.93;6.20;;;;;;;;;;10423055;28;20218;-81
2023/12/09 03:17:35;;;;;;;10.68;7.00;;;;;;;;;;10443250;28;20211;-80
2023/12/09 03:22:36;;;;;;;10.68;6.03;;;;;;;;;;10430124;28;20595;-81
2023/12/09 03:27:37;;;;;;;10.52;6.65;;;;;;;;;;10408323;28;20284;-80
2023/12/09 03:32:41;;;;;;;11.73;6.05;;;;;;;;;;10365563;28;20220;-80
2023/12/09 03:37:42;;;;;;;10.57;6.47;;;;;;;;;;10374552;28;20215;-80
2023/12/09 03:42:43;;;;;;;14.52;6.35;;;;;;;;;;10393096;28;20223;-80
2023/12/09 03:47:45;;;;;;;11.32;6.70;;;;;;;;;;10386971;28;20211;-79
2023/12/09 03:52:46;;;;;;;10.18;6.43;;;;;;;;;;10385815;28;20306;-79
2023/12/09 03:57:47;;;;;;;9.77;5.80;;;;;;;;;;10371479;28;20219;-80
2023/12/09 04:02:48;;;;;;;12.35;5.57;;;;;;;;;;10397014;28;20697;-80
2023/12/09 04:07:49;;;;;;;13.25;6.07;;;;;;;;;;10412603;28;20230;-80
2023/12/09 04:12:50;;;;;;;10.98;6.32;;;;;;;;;;10433425;28;20245;-80
2023/12/09 04:17:51;;;;;;;10.93;5.95;;;;;;;;;;10433176;28;20214;-80
2023/12/09 04:22:51;;;;;;;10.57;5.60;;;;;;;;;;10430506;28;20209;-79
2023/12/09 04:27:54;;;;;;;10.32;6.07;;;;;;;;;;10411171;28;20212;-79
2023/12/09 04:32:55;;;;;;;9.27;5.07;;;;;;;;;;10414470;28;20222;-79
2023/12/09 04:37:56;;;;;;;12.35;5.88;;;;;;;;;;10427624;28;20211;-79
2023/12/09 04:42:57;;;;;;;13.75;5.53;;;;;;;;;;10401030;28;20781;-79
2023/12/09 04:47:58;;;;;;;10.50;5.80;;;;;;;;;;10412982;28;20214;-80
2023/12/09 04:52:59;;;;;;;10.13;5.90;;;;;;;;;;10431531;28;20218;-80
2023/12/09 04:58:03;;;;;;;10.25;4.85;;;;;;;;;;10425390;28;20222;-79
2023/12/09 05:03:04;;;;;;;8.18;4.65;;;;;;;;;;10435669;28;20215;-79
2023/12/09 05:08:05;;;;;;;7.78;5.05;;;;;;;;;;10414491;28;20238;-79
2023/12/09 05:13:06;;;;;;;5.65;4.15;;;;;;;;;;10406708;28;20305;-80
2023/12/09 05:18:07;;;;;;;7.50;4.40;;;;;;;;;;10418253;28;20203;-80
2023/12/09 05:23:08;;;;;;;5.82;4.13;;;;;;;;;;10403192;28;20220;-80
2023/12/09 05:28:09;;;;;;;7.05;4.63;;;;;;;;;;10389470;28;21072;-80
2023/12/09 05:33:10;;;;;;;6.75;4.20;;;;;;;;;;10403685;28;20223;-79
2023/12/09 05:38:11;;;;;;;9.20;4.72;;;;;;;;;;10402512;28;20218;-79
2023/12/09 05:43:12;;;;;;;7.90;4.22;;;;;;;;;;10416526;28;20215;-80
2023/12/09 05:48:13;;;;;;;4.72;3.85;;;;;;;;;;10401709;28;20734;-80
2023/12/09 05:53:14;;;;;;;4.45;3.65;;;;;;;;;;10425325;28;20234;-79
2023/12/09 05:58:15;;;;;;;4.60;3.42;;;;;;;;;;10389830;28;20296;-80
2023/12/09 06:03:16;;;;;;;5.00;4.32;;;;;;;;;;10411113;28;20225;-79
2023/12/09 06:08:17;;;;;;;6.80;4.43;;;;;;;;;;10427688;28;20214;-80
2023/12/09 06:13:18;;;;;;;5.38;3.70;;;;;;;;;;10437930;28;20316;-79
2023/12/09 06:18:19;;;;;;;9.82;4.85;;;;;;;;;;10421514;28;20210;-80
2023/12/09 06:23:20;;;;;;;5.13;3.13;;;;;;;;;;10386223;28;20215;-80
2023/12/09 06:28:24;;;;;;;6.55;4.43;;;;;;;;;;10393497;28;20624;-78
2023/12/09 06:33:25;;;;;;;5.85;4.03;;;;;;;;;;10422033;28;20229;-80
2023/12/09 06:38:26;;;;;;;6.30;4.25;;;;;;;;;;10475195;28;20214;-79
2023/12/09 06:43:27;;;;;;;6.72;4.60;;;;;;;;;;10411064;28;20254;-78
2023/12/09 06:48:28;;;;;;;6.57;4.57;;;;;;;;;;10425035;28;20213;-78
2023/12/09 06:53:29;;;;;;;7.22;4.35;;;;;;;;;;10389053;28;20223;-80
2023/12/09 06:58:30;;;;;;;9.85;6.07;;;;;;;;;;10402907;28;20210;-79
2023/12/09 07:03:32;;;;;;;9.18;5.70;;;;;;;;;;10427004;28;20219;-80
2023/12/09 07:08:33;;;;;;;6.72;4.88;;;;;;;;;;10400114;28;20302;-80
2023/12/09 07:13:34;;;;;;;6.47;4.88;;;;;;;;;;10416544;28;20213;-79
2023/12/09 07:18:35;;;;;;;7.10;5.05;;;;;;;;;;10422422;28;20214;-79
2023/12/09 07:23:36;;;;;;;8.63;4.82;;;;;;;;;;10375307;28;20251;-78
2023/12/09 07:28:37;;;;;;;7.25;4.85;;;;;;;;;;10383199;28;20306;-79
2023/12/09 07:33:38;;;;;;;4.32;3.92;;;;;;;;;;10414925;28;20619;-79
2023/12/09 07:38:39;;;;;;;5.45;4.28;;;;;;;;;;10401150;28;20222;-80
2023/12/09 07:43:40;;;;;;;9.65;4.50;;;;;;;;;;10402394;28;20223;-80
2023/12/09 07:48:41;;;;;;;7.85;4.72;;;;;;;;;;10421301;28;20211;-79
2023/12/09 07:53:42;;;;;;;9.43;4.72;;;;;;;;;;10381918;28;20277;-80
2023/12/09 07:58:45;;;;;;;7.72;4.40;;;;;;;;;;10421332;28;20301;-80
2023/12/09 08:03:46;;;;;;;7.93;4.80;;;;;;;;;;10371861;28;20288;-80
2023/12/09 08:08:50;;;;;;;7.90;4.93;;;;;;;;;;10380923;28;20203;-80
2023/12/09 08:13:51;;;;;;;5.80;3.72;;;;;;;;;;10409133;28;20224;-80
2023/12/09 08:18:53;;;;;;;5.95;4.68;;;;;;;;;;10386496;28;20284;-80
2023/12/09 08:23:54;;;;;;;6.80;4.78;;;;;;;;;;10393145;28;20300;-79
2023/12/09 08:28:55;;;;;;;6.75;4.22;;;;;;;;;;10403292;28;20203;-80
2023/12/09 08:33:56;;;;;;;7.88;4.63;;;;;;;;;;10403392;28;20225;-80
2023/12/09 08:38:58;;;;;;;5.88;4.40;;;;;;;;;;10398664;28;20210;-79
2023/12/09 08:43:59;;;;;;;5.80;4.47;;;;;;;;;;10401961;28;20227;-80
2023/12/09 08:49:00;;;;;;;5.68;4.68;;;;;;;;;;10397589;28;20215;-80
2023/12/09 08:54:01;;;;;;;6.05;4.10;;;;;;;;;;10385325;28;20226;-80
2023/12/09 08:59:02;;;;;;;8.68;4.30;;;;;;;;;;10417134;28;20214;-79
2023/12/09 09:04:03;;;;;;;9.43;5.43;;;;;;;;;;10404121;28;20234;-80
2023/12/09 09:09:04;;;;;;;7.82;4.68;;;;;;;;;;10393195;28;20210;-80
2023/12/09 09:14:05;;;;;;;8.20;4.60;;;;;;;;;;10380763;28;20215;-80
2023/12/09 09:19:06;;;;;;;6.60;4.60;;;;;;;;;;10389242;28;20210;-82
2023/12/09 09:24:08;;;;;;;6.45;3.92;;;;;;;;;;10393076;28;20325;-79
2023/12/09 09:29:10;;;;;;;7.30;4.50;;;;;;;;;;10377390;28;20739;-80
2023/12/09 09:34:11;;;;;;;8.30;4.30;;;;;;;;;;10377682;28;20225;-80
2023/12/09 09:39:12;;;;;;;6.75;4.65;;;;;;;;;;10387400;28;20214;-80
2023/12/09 09:44:18;;;;;;;9.27;4.53;;;;;;;;;;10377865;28;20215;-80
2023/12/09 09:49:20;;;;;;;7.03;4.25;;;;;;;;;;10342437;28;20744;-80
2023/12/09 09:54:21;;;;;;;6.57;4.60;;;;;;;;;;10380321;28;20231;-81
2023/12/09 09:59:23;;;;;;;8.02;4.45;;;;;;;;;;10378152;28;20214;-81
2023/12/09 10:04:24;;;;;;;6.82;4.75;;;;;;;;;;10399877;28;20272;-80
2023/12/09 10:09:25;;;;;;;8.05;4.40;;;;;;;;;;10395377;28;20377;-80
2023/12/09 10:14:26;;;;;;;6.15;4.38;;;;;;;;;;10394030;28;20218;-80
2023/12/09 10:19:27;;;;;;;4.85;3.90;;;;;;;;;;10367040;28;20604;-78
2023/12/09 10:24:28;;;;;;;3.40;3.20;;;;;;;;;;10386315;28;20217;-76
2023/12/09 10:29:29;;;;;;;5.10;2.80;;;;;;;;;;10387933;28;20222;-77
2023/12/09 10:34:30;;;;;;;2.58;2.38;;;;;;;;;;10405684;28;20218;-76
2023/12/09 10:39:31;;;;;;;3.55;1.95;;;;;;;;;;10391718;28;20211;-77
2023/12/09 10:44:32;;;;;;;2.50;2.30;;;;;;;;;;10366246;28;21659;-76
2023/12/09 10:49:33;;;;;;;2.95;1.63;;;;;;;;;;10404125;28;20389;-78
2023/12/09 10:54:35;;;;;;;2.40;2.20;;;;;;;;;;10385806;28;20222;-78
2023/12/09 10:59:36;;;;;;;5.55;2.00;;;;;;;;;;10384239;28;20210;-77
2023/12/09 11:04:37;;;;;;;2.30;2.20;;;;;;;;;;10405754;28;20811;-76
2023/12/09 11:09:39;;;;;;;1.48;1.38;;;;;;;;;;10389135;28;20211;-77
2023/12/09 11:14:41;;;;;;;1.90;1.80;;;;;;;;;;10343606;28;20977;-76
2023/12/09 11:19:44;;;;;;;1.60;1.50;;;;;;;;;;10414442;28;20221;-76
2023/12/09 11:24:46;;;;;;;1.90;1.80;;;;;;;;;;10381198;28;20219;-75
2023/12/09 11:29:47;;;;;;;3.35;1.52;;;;;;;;;;10367531;28;20218;-78
2023/12/09 11:34:48;;;;;;;2.33;1.77;;;;;;;;;;10404430;28;20302;-75
2023/12/09 11:39:50;;;;;;;2.63;1.90;;;;;;;;;;10376966;28;20217;-75
2023/12/09 11:44:51;;;;;;;2.08;1.98;;;;;;;;;;10402413;28;20743;-75
2023/12/09 11:49:52;;;;;;;2.17;1.70;;;;;;;;;;10424718;28;20229;-75
2023/12/09 11:55:00;;;;;;;2.05;1.45;;;;;;;;;;10426293;28;20218;-75
2023/12/09 12:00:06;;;;;;;2.45;2.08;;;;;;;;;;10385355;28;20226;-76
2023/12/09 12:05:11;;;;;;;3.50;2.90;;;;;;;;;;10373850;28;20663;-74
2023/12/09 12:10:14;;;;;;;6.72;3.88;;;;;;;;;;10389183;28;20217;-76
2023/12/09 12:15:15;;;;;;;11.90;5.85;;;;;;;;;;10366683;28;20211;-74
2023/12/09 12:20:16;;;;;;;18.05;8.30;;;;;;;;;;10407390;28;20249;-75
2023/12/09 12:25:17;;;;;;;9.45;5.97;;;;;;;;;;10338622;28;20265;-74
2023/12/09 12:30:18;;;;;;;13.05;8.43;;;;;;;;;;10350005;28;20741;-75
2023/12/09 12:35:19;;;;;;;5.80;4.22;;;;;;;;;;10374525;28;20226;-74
2023/12/09 12:40:20;;;;;;;3.42;3.13;;;;;;;;;;10331683;28;20203;-74
2023/12/09 12:45:23;;;;;;;2.63;2.42;;;;;;;;;;10350213;28;20203;-74
2023/12/09 12:50:24;;;;;;;3.08;2.33;;;;;;;;;;10357528;28;20215;-74
2023/12/09 12:55:25;;;;;;;2.33;2.22;;;;;;;;;;10331329;28;20890;-76
2023/12/09 13:00:26;;;;;;;7.60;2.05;;;;;;;;;;10350181;28;20226;-74
2023/12/09 13:05:27;;;;;;;3.33;3.03;;;;;;;;;;10352064;28;20239;-74
2023/12/09 13:10:28;;;;;;;2.53;2.33;;;;;;;;;;10391959;28;20759;-75
2023/12/09 13:15:29;;;;;;;3.38;1.88;;;;;;;;;;10419485;28;20218;-75
2023/12/09 13:20:30;;;;;;;2.22;1.80;;;;;;;;;;10411413;28;20818;-75
2023/12/09 13:25:32;;;;;;;1.73;1.65;;;;;;;;;;10431923;28;20211;-75
2023/12/09 13:30:33;;;;;;;3.22;1.50;;;;;;;;;;10394323;28;20214;-75
2023/12/09 13:35:34;;;;;;;1.85;1.45;;;;;;;;;;10387941;28;21295;-75
2023/12/09 13:40:35;;;;;;;1.50;1.15;;;;;;;;;;10381291;28;20212;-74
2023/12/09 13:45:36;;;;;;;2.30;1.67;;;;;;;;;;10363030;28;20272;-74
2023/12/09 13:50:39;;;;;;;1.70;1.60;;;;;;;;;;10355134;28;20253;-75
2023/12/09 13:55:40;;;;;;;2.90;1.27;;;;;;;;;;10385794;28;20269;-75
2023/12/09 14:00:41;;;;;;;4.00;1.55;;;;;;;;;;10389984;28;24057;-76
2023/12/09 14:05:43;;;;;;;1.73;1.30;;;;;;;;;;10389943;28;20226;-76
2023/12/09 14:10:44;;;;;;;1.92;1.70;;;;;;;;;;10393230;28;20912;-76
2023/12/09 14:15:45;;;;;;;1.92;1.75;;;;;;;;;;10408115;28;20210;-76
2023/12/09 14:20:46;;;;;;;1.80;1.60;;;;;;;;;;10391831;28;20222;-76
2023/12/09 14:25:47;;;;;;;1.63;1.52;;;;;;;;;;10382574;28;20313;-77
2023/12/09 14:30:48;;;;;;;4.13;2.17;;;;;;;;;;10405555;28;20221;-76
2023/12/09 14:35:49;;;;;;;1.50;1.38;;;;;;;;;;10379329;28;20754;-76
2023/12/09 14:40:50;;;;;;;2.83;1.85;;;;;;;;;;10424597;28;20268;-76
2023/12/09 14:45:51;;;;;;;3.40;1.65;;;;;;;;;;10402028;28;20213;-76
2023/12/09 14:50:53;;;;;;;2.45;1.73;;;;;;;;;;10419441;28;20218;-76
2023/12/09 14:55:54;;;;;;;2.67;1.45;;;;;;;;;;10416460;28;20209;-75
2023/12/09 15:00:55;;;;;;;1.80;1.50;;;;;;;;;;10413798;28;20234;-76
2023/12/09 15:05:56;;;;;;;2.70;2.08;;;;;;;;;;10388447;28;20229;-77
2023/12/09 15:10:57;;;;;;;1.75;1.65;;;;;;;;;;10406513;28;20226;-75
2023/12/09 15:15:59;;;;;;;2.17;1.98;;;;;;;;;;10403211;28;20238;-76
2023/12/09 15:21:00;;;;;;;1.55;1.52;;;;;;;;;;10351736;28;20216;-76
2023/12/09 15:26:01;;;;;;;1.77;1.65;;;;;;;;;;10360170;28;20615;-76
2023/12/09 15:31:02;;;;;;;1.42;1.42;;;;;;;;;;10365875;28;20213;-76
2023/12/09 15:36:03;;;;;;;1.73;1.60;;;;;;;;;;10344456;28;20338;-76
2023/12/09 15:41:05;;;;;;;4.05;2.03;;;;;;;;;;10344592;28;20212;-75
2023/12/09 15:46:06;;;;;;;1.67;1.50;;;;;;;;;;10371684;28;20211;-75
2023/12/09 15:51:10;;;;;;;1.50;1.50;;;;;;;;;;10360353;28;20222;-75
2023/12/09 15:56:11;;;;;;;2.05;1.92;;;;;;;;;;10398743;28;20203;-74
2023/12/09 16:01:12;;;;;;;1.95;1.80;;;;;;;;;;10411738;28;20215;-74
2023/12/09 16:06:13;;;;;;;4.93;1.88;;;;;;;;;;10383143;28;20330;-75
2023/12/09 16:11:14;;;;;;;2.10;1.90;;;;;;;;;;10400810;28;20211;-74
2023/12/09 16:16:15;;;;;;;5.78;2.05;;;;;;;;;;10410444;28;20214;-75
2023/12/09 16:21:16;;;;;;;1.98;1.88;;;;;;;;;;10382041;28;20818;-75
2023/12/09 16:26:17;;;;;;;6.65;3.28;;;;;;;;;;10373240;28;20292;-75
2023/12/09 16:31:18;;;;;;;2.72;2.47;;;;;;;;;;10410717;28;20215;-75
2023/12/09 16:36:20;;;;;;;2.60;2.40;;;;;;;;;;10384879;28;20211;-76
2023/12/09 16:41:22;;;;;;;3.60;2.70;;;;;;;;;;10356814;28;20219;-75
2023/12/09 16:46:24;;;;;;;2.80;2.60;;;;;;;;;;10362337;28;20215;-75
2023/12/09 16:51:25;;;;;;;3.40;3.17;;;;;;;;;;10369027;28;20238;-76
2023/12/09 16:56:26;;;;;;;4.43;2.80;;;;;;;;;;10338732;28;20266;-76
2023/12/09 17:01:27;;;;;;;6.35;3.03;;;;;;;;;;10376113;28;20211;-75
2023/12/09 17:06:28;;;;;;;3.10;2.80;;;;;;;;;;10375427;28;20228;-75
2023/12/09 17:11:29;;;;;;;7.80;3.42;;;;;;;;;;10367200;28;20219;-74
2023/12/09 17:16:30;;;;;;;2.92;2.72;;;;;;;;;;10364768;28;20776;-75
2023/12/09 17:21:31;;;;;;;2.80;2.70;;;;;;;;;;10355573;28;20230;-74
2023/12/09 17:26:32;;;;;;;3.45;3.20;;;;;;;;;;10364961;28;20240;-75
2023/12/09 17:31:35;;;;;;;3.20;2.97;;;;;;;;;;10402999;28;20250;-75
2023/12/09 17:36:36;;;;;;;3.17;2.47;;;;;;;;;;10401142;28;20222;-74
2023/12/09 17:41:37;;;;;;;2.80;2.60;;;;;;;;;;10362217;28;20214;-74
2023/12/09 17:46:38;;;;;;;3.35;3.05;;;;;;;;;;10364918;28;20207;-74
2023/12/09 17:51:39;;;;;;;6.40;3.10;;;;;;;;;;10369715;28;20219;-75
2023/12/09 17:56:40;;;;;;;3.80;3.47;;;;;;;;;;10366292;28;20692;-75
2023/12/09 18:01:41;;;;;;;3.90;3.47;;;;;;;;;;10385035;28;20218;-75
2023/12/09 18:06:42;;;;;;;4.53;3.20;;;;;;;;;;10391173;28;20241;-74
2023/12/09 18:11:43;;;;;;;5.45;3.78;;;;;;;;;;10421426;28;20232;-74
2023/12/09 18:16:44;;;;;;;3.85;3.22;;;;;;;;;;10391860;28;20207;-74
2023/12/09 18:21:46;;;;;;;4.53;3.50;;;;;;;;;;10382927;28;20730;-73
2023/12/09 18:26:47;;;;;;;4.80;4.32;;;;;;;;;;10405724;28;20538;-74
2023/12/09 18:31:48;;;;;;;4.85;4.22;;;;;;;;;;10365456;28;20222;-74
2023/12/09 18:36:49;;;;;;;6.18;4.32;;;;;;;;;;10395734;28;20210;-74
2023/12/09 18:41:50;;;;;;;4.05;3.67;;;;;;;;;;10410174;28;20325;-74
2023/12/09 18:46:51;;;;;;;5.35;3.75;;;;;;;;;;10378306;28;20758;-74
2023/12/09 18:51:52;;;;;;;4.38;3.90;;;;;;;;;;10363983;28;20214;-74
2023/12/09 18:56:53;;;;;;;3.83;3.28;;;;;;;;;;10369391;28;20218;-74
2023/12/09 19:01:54;;;;;;;4.80;3.70;;;;;;;;;;10359612;28;20268;-74
2023/12/09 19:06:55;;;;;;;3.85;3.47;;;;;;;;;;10394123;28;20234;-74
2023/12/09 19:11:56;;;;;;;8.10;4.50;;;;;;;;;;10402390;28;20223;-75
2023/12/09 19:16:58;;;;;;;5.97;4.25;;;;;;;;;;10385757;28;20235;-74
2023/12/09 19:21:59;;;;;;;4.90;4.40;;;;;;;;;;10423234;28;20215;-74
2023/12/09 19:27:00;;;;;;;4.70;4.25;;;;;;;;;;10399495;28;20211;-74
2023/12/09 19:32:02;;;;;;;4.43;3.78;;;;;;;;;;10378044;28;20254;-75
2023/12/09 19:37:03;;;;;;;4.20;3.53;;;;;;;;;;10377095;28;20864;-74
2023/12/09 19:42:04;;;;;;;3.83;3.53;;;;;;;;;;10380997;28;20218;-76
2023/12/09 19:47:05;;;;;;;7.15;4.65;;;;;;;;;;10379980;28;20221;-75
2023/12/09 19:52:06;;;;;;;4.78;3.67;;;;;;;;;;10372529;28;20222;-75
2023/12/09 19:57:10;;;;;;;2.92;2.72;;;;;;;;;;10397048;28;20678;-73
2023/12/09 20:02:11;;;;;;;5.78;3.45;;;;;;;;;;10379596;28;20987;-74
2023/12/09 20:07:12;;;;;;;3.10;2.95;;;;;;;;;;10364975;28;20219;-76
2023/12/09 20:12:13;;;;;;;3.35;3.15;;;;;;;;;;10346586;28;21415;-75
2023/12/09 20:17:14;;;;;;;3.38;3.08;;;;;;;;;;10392449;28;20696;-74
2023/12/09 20:22:15;;;;;;;5.07;2.80;;;;;;;;;;10356708;28;20672;-74
2023/12/09 20:27:16;;;;;;;3.78;3.40;;;;;;;;;;10376765;28;20219;-74
2023/12/09 20:32:17;;;;;;;3.72;3.45;;;;;;;;;;10355946;28;20226;-74
2023/12/09 20:37:18;;;;;;;7.53;3.25;;;;;;;;;;10326169;28;20362;-76
2023/12/09 20:42:20;;;;;;;9.25;3.88;;;;;;;;;;10348750;28;20215;-74
2023/12/09 20:47:21;;;;;;;3.13;2.92;;;;;;;;;;10340743;28;20214;-74
2023/12/09 20:52:21;;;;;;;4.15;3.38;;;;;;;;;;10324708;28;20330;-74
2023/12/09 20:57:23;;;;;;;3.85;3.45;;;;;;;;;;10351904;28;20203;-73
2023/12/09 21:02:24;;;;;;;3.50;3.10;;;;;;;;;;10336247;28;20838;-75
2023/12/09 21:07:25;;;;;;;3.38;2.78;;;;;;;;;;10337803;28;20290;-74
2023/12/09 21:12:26;;;;;;;4.00;3.00;;;;;;;;;;10310876;28;20322;-74
2023/12/09 21:17:27;;;;;;;2.97;2.72;;;;;;;;;;10350715;28;20207;-75
2023/12/09 21:22:29;;;;;;;3.60;3.30;;;;;;;;;;10370228;28;20218;-74
2023/12/09 21:27:30;;;;;;;4.07;3.45;;;;;;;;;;10380258;28;20207;-75
2023/12/09 21:32:31;;;;;;;5.40;4.78;;;;;;;;;;10377798;28;20222;-77
2023/12/09 21:37:32;;;;;;;5.60;3.53;;;;;;;;;;10384630;28;21620;-75
2023/12/09 21:42:33;;;;;;;7.22;5.22;;;;;;;;;;10370564;28;20227;-74
2023/12/09 21:47:36;;;;;;;7.32;5.15;;;;;;;;;;10392518;28;20215;-76
2023/12/09 21:52:37;;;;;;;8.93;6.10;;;;;;;;;;10377066;28;20211;-75
2023/12/09 21:57:38;;;;;;;9.50;5.28;;;;;;;;;;10370293;28;20215;-77
2023/12/09 22:02:39;;;;;;;4.43;4.03;;;;;;;;;;10376144;28;20208;-75
2023/12/09 22:07:40;;;;;;;4.40;3.80;;;;;;;;;;10422293;28;20246;-75
2023/12/09 22:12:41;;;;;;;6.40;3.85;;;;;;;;;;10414793;28;20210;-75
2023/12/09 22:17:42;;;;;;;6.03;4.35;;;;;;;;;;10407047;28;20706;-75
2023/12/09 22:22:43;;;;;;;3.55;2.78;;;;;;;;;;10410117;28;20737;-75
2023/12/09 22:27:45;;;;;;;4.85;3.65;;;;;;;;;;10398402;28;21648;-75
2023/12/09 22:32:46;;;;;;;8.77;5.00;;;;;;;;;;10391532;28;20223;-74
2023/12/09 22:37:47;;;;;;;6.28;3.97;;;;;;;;;;10365974;28;20206;-75
2023/12/09 22:42:48;;;;;;;7.15;5.47;;;;;;;;;;10395799;28;20984;-75
2023/12/09 22:47:49;;;;;;;6.00;4.78;;;;;;;;;;10406199;28;20218;-75
2023/12/09 22:52:50;;;;;;;7.70;4.88;;;;;;;;;;10362732;28;20219;-75
2023/12/09 22:57:51;;;;;;;5.97;4.38;;;;;;;;;;10377966;28;20213;-75
2023/12/09 23:02:52;;;;;;;4.20;3.85;;;;;;;;;;10391459;28;20207;-74
2023/12/09 23:07:53;;;;;;;4.30;3.72;;;;;;;;;;10412011;28;20296;-74
2023/12/09 23:12:54;;;;;;;5.10;3.75;;;;;;;;;;10435698;28;20225;-74
2023/12/09 23:17:55;;;;;;;5.53;4.10;;;;;;;;;;10426314;28;20268;-74
2023/12/09 23:22:56;;;;;;;4.03;3.70;;;;;;;;;;10422591;28;20285;-74
2023/12/09 23:27:57;;;;;;;7.07;3.75;;;;;;;;;;10391760;28;20213;-75
2023/12/09 23:32:58;;;;;;;5.80;3.35;;;;;;;;;;10400822;28;20213;-76
2023/12/09 23:37:59;;;;;;;7.93;4.07;;;;;;;;;;10387401;28;20281;-75
2023/12/09 23:43:00;;;;;;;7.60;4.07;;;;;;;;;;10373130;28;20226;-75
2023/12/09 23:48:01;;;;;;;5.40;3.88;;;;;;;;;;10399492;28;20575;-75
2023/12/09 23:53:03;;;;;;;8.88;3.45;;;;;;;;;;10382621;28;20780;-75
2023/12/09 23:58:04;;;;;;;3.95;3.65;;;;;;;;;;10374906;28;20202;-75
